createdAt,value
2019-03-23T00:00:40.585Z,71.07
2019-03-23T00:03:12.932Z,73.43
2019-03-23T00:05:45.292Z,73.40
2019-03-23T00:08:17.668Z,76.07
2019-03-23T00:10:49.928Z,77.70
2019-03-23T00:13:22.227Z,77.73
2019-03-23T00:15:54.560Z,74.40
2019-03-23T00:18:26.839Z,74.87
2019-03-23T00:20:59.089Z,74.70
2019-03-23T00:23:31.361Z,74.50
2019-03-23T00:26:03.596Z,78.67
2019-03-23T00:28:35.847Z,77.07
2019-03-23T00:31:08.175Z,78.47
2019-03-23T00:33:40.515Z,79.00
2019-03-23T00:36:12.766Z,79.37
2019-03-23T00:38:45.033Z,79.43
2019-03-23T00:41:17.386Z,81.43
2019-03-23T00:43:49.728Z,77.80
2019-03-23T00:46:21.985Z,84.43
2019-03-23T00:48:54.340Z,81.90
2019-03-23T00:51:26.608Z,77.30
2019-03-23T00:53:58.868Z,79.13
2019-03-23T00:56:31.237Z,78.40
2019-03-23T00:59:03.713Z,80.80
2019-03-23T01:01:35.959Z,77.43
2019-03-23T01:04:08.223Z,79.93
2019-03-23T01:06:40.470Z,77.30
2019-03-23T01:09:12.799Z,79.33
2019-03-23T01:11:45.156Z,80.53
2019-03-23T01:14:17.409Z,84.87
2019-03-23T01:16:49.643Z,81.70
2019-03-23T01:19:21.897Z,81.80
2019-03-23T01:21:54.135Z,78.20
2019-03-23T01:24:26.402Z,79.63
2019-03-23T01:26:58.673Z,81.83
2019-03-23T01:29:31.016Z,75.57
2019-03-23T01:32:03.379Z,72.83
2019-03-23T01:34:35.664Z,85.07
2019-03-23T01:37:07.916Z,86.93
2019-03-23T01:39:40.165Z,87.57
2019-03-23T01:42:12.408Z,87.43
2019-03-23T01:44:44.665Z,87.03
2019-03-23T01:47:16.923Z,88.70
2019-03-23T01:49:49.208Z,93.37
2019-03-23T01:52:21.556Z,87.70
2019-03-23T01:54:53.806Z,86.97
2019-03-23T01:57:26.091Z,88.90
2019-03-23T01:59:58.501Z,91.17
2019-03-23T02:02:30.752Z,87.60
2019-03-23T02:05:03.730Z,85.80
2019-03-23T02:07:36.041Z,85.47
2019-03-23T02:10:08.993Z,83.50
2019-03-23T02:12:41.242Z,83.33
2019-03-23T02:15:13.841Z,89.93
2019-03-23T02:17:46.090Z,88.93
2019-03-23T02:20:18.482Z,88.00
2019-03-23T02:22:50.724Z,86.07
2019-03-23T02:25:23.113Z,81.70
2019-03-23T02:27:55.340Z,84.33
2019-03-23T02:30:27.592Z,87.67
2019-03-23T02:32:59.853Z,80.87
2019-03-23T02:35:32.150Z,79.47
2019-03-23T02:38:04.481Z,81.50
2019-03-23T02:40:36.818Z,83.33
2019-03-23T02:43:09.082Z,79.70
2019-03-23T02:45:41.466Z,80.30
2019-03-23T02:48:13.729Z,81.90
2019-03-23T02:50:46.100Z,81.30
2019-03-23T02:53:18.341Z,79.40
2019-03-23T02:55:50.601Z,77.87
2019-03-23T02:58:22.879Z,78.97
2019-03-23T03:00:55.240Z,76.23
2019-03-23T03:03:27.582Z,81.63
2019-03-23T03:05:59.856Z,80.33
2019-03-23T03:08:32.135Z,78.80
2019-03-23T03:11:04.616Z,77.93
2019-03-23T03:13:36.951Z,75.87
2019-03-23T03:16:09.217Z,76.37
2019-03-23T03:18:41.586Z,79.60
2019-03-23T03:21:13.860Z,81.27
2019-03-23T03:23:46.092Z,76.47
2019-03-23T03:26:18.353Z,77.80
2019-03-23T03:28:50.724Z,74.90
2019-03-23T03:31:23.148Z,75.67
2019-03-23T03:33:55.857Z,81.43
2019-03-23T03:36:30.047Z,77.93
2019-03-23T03:39:03.857Z,81.07
2019-03-23T03:41:36.141Z,77.97
2019-03-23T03:44:08.411Z,81.43
2019-03-23T03:46:40.713Z,78.07
2019-03-23T03:49:13.208Z,80.10
2019-03-23T03:51:46.168Z,75.77
2019-03-23T03:54:18.530Z,79.77
2019-03-23T03:56:50.817Z,75.10
2019-03-23T03:59:23.445Z,74.43
2019-03-23T04:01:55.846Z,76.47
2019-03-23T04:04:28.161Z,78.27
2019-03-23T04:07:00.454Z,78.90
2019-03-23T04:09:32.814Z,80.57
2019-03-23T04:12:05.199Z,80.33
2019-03-23T04:14:37.573Z,77.77
2019-03-23T04:17:09.845Z,78.20
2019-03-23T04:19:42.094Z,80.33
2019-03-23T04:22:14.359Z,84.50
2019-03-23T04:24:46.616Z,79.20
2019-03-23T04:27:18.999Z,78.27
2019-03-23T04:29:51.325Z,81.10
2019-03-23T04:32:23.674Z,79.13
2019-03-23T04:34:55.961Z,81.20
2019-03-23T04:37:28.315Z,74.80
2019-03-23T04:40:00.606Z,75.33
2019-03-23T04:42:32.958Z,72.47
2019-03-23T04:45:06.036Z,70.00
2019-03-23T04:47:38.292Z,67.13
2019-03-23T04:50:11.746Z,70.80
2019-03-23T04:52:43.997Z,63.50
2019-03-23T04:55:16.248Z,69.13
2019-03-23T04:57:48.597Z,73.23
2019-03-23T05:00:20.847Z,70.97
2019-03-23T05:02:53.113Z,67.60
2019-03-23T05:05:25.350Z,72.80
2019-03-23T05:07:57.588Z,65.43
2019-03-23T05:10:29.846Z,67.03
2019-03-23T05:13:02.216Z,68.13
2019-03-23T05:15:34.551Z,65.53
2019-03-23T05:18:06.820Z,64.97
2019-03-23T05:20:39.048Z,63.30
2019-03-23T05:23:11.306Z,65.17
2019-03-23T05:25:43.549Z,66.77
2019-03-23T05:28:15.808Z,67.53
2019-03-23T05:30:48.075Z,58.03
2019-03-23T05:33:20.331Z,61.60
2019-03-23T05:35:52.589Z,69.00
2019-03-23T05:38:24.844Z,61.70
2019-03-23T05:40:57.176Z,64.03
2019-03-23T05:43:29.437Z,67.67
2019-03-23T05:46:01.784Z,62.40
2019-03-23T05:48:34.063Z,61.17
2019-03-23T05:51:06.302Z,62.53
2019-03-23T05:53:38.555Z,60.47
2019-03-23T05:56:10.789Z,59.33
2019-03-23T05:58:43.061Z,56.73
2019-03-23T06:01:15.303Z,58.37
2019-03-23T06:03:47.561Z,55.73
2019-03-23T06:06:19.916Z,51.70
2019-03-23T06:08:55.191Z,49.13
2019-03-23T06:11:26.393Z,48.57
2019-03-23T06:13:58.758Z,44.93
2019-03-23T06:16:31.008Z,43.80
2019-03-23T06:19:03.417Z,42.93
2019-03-23T06:21:35.748Z,41.50
2019-03-23T06:24:08.113Z,39.80
2019-03-23T06:26:40.367Z,42.13
2019-03-23T06:29:12.636Z,41.03
2019-03-23T06:31:44.877Z,38.30
2019-03-23T06:34:17.136Z,41.23
2019-03-23T06:36:49.402Z,40.47
2019-03-23T06:39:21.765Z,38.40
2019-03-23T06:41:54.009Z,33.47
2019-03-23T06:44:26.385Z,32.27
2019-03-23T06:46:58.744Z,33.20
2019-03-23T06:49:31.003Z,31.63
2019-03-23T06:52:03.396Z,31.13
2019-03-23T06:54:35.680Z,30.73
2019-03-23T06:57:08.039Z,31.43
2019-03-23T06:59:40.305Z,30.43
2019-03-23T07:02:12.619Z,29.80
2019-03-23T07:04:44.948Z,29.43
2019-03-23T07:07:17.305Z,31.03
2019-03-23T07:09:49.556Z,32.37
2019-03-23T07:12:21.823Z,32.73
2019-03-23T07:14:54.091Z,31.97
2019-03-23T07:17:26.347Z,32.17
2019-03-23T07:19:58.612Z,30.93
2019-03-23T07:22:30.849Z,30.77
2019-03-23T07:25:04.216Z,30.20
2019-03-23T07:27:36.511Z,31.43
2019-03-23T07:30:11.232Z,29.50
2019-03-23T07:32:43.576Z,31.70
2019-03-23T07:35:16.105Z,30.63
2019-03-23T07:37:48.475Z,30.83
2019-03-23T07:40:20.774Z,31.50
2019-03-23T07:42:53.025Z,30.43
2019-03-23T07:45:25.402Z,30.67
2019-03-23T07:47:57.766Z,29.63
2019-03-23T07:50:30.129Z,29.63
2019-03-23T07:53:02.460Z,29.25
2019-03-23T07:55:34.715Z,29.25
2019-03-23T07:58:06.984Z,29.82
2019-03-23T08:00:40.982Z,30.68
2019-03-23T08:03:13.509Z,29.92
2019-03-23T08:05:45.888Z,30.88
2019-03-23T08:08:18.199Z,28.90
2019-03-23T08:10:50.508Z,32.75
2019-03-23T08:13:22.905Z,32.90
2019-03-23T08:15:55.245Z,34.92
2019-03-23T08:18:27.529Z,33.42
2019-03-23T08:20:59.888Z,34.98
2019-03-23T08:23:32.188Z,34.67
2019-03-23T08:26:04.463Z,34.45
2019-03-23T08:28:36.765Z,36.15
2019-03-23T08:31:09.336Z,35.40
2019-03-23T08:33:41.617Z,35.15
2019-03-23T08:36:13.884Z,36.08
2019-03-23T08:38:46.165Z,36.45
2019-03-23T08:41:18.527Z,35.98
2019-03-23T08:43:50.764Z,35.83
2019-03-23T08:46:23.029Z,35.83
2019-03-23T08:48:55.299Z,34.78
2019-03-23T08:51:27.568Z,34.83
2019-03-23T08:53:59.908Z,35.48
2019-03-23T08:56:32.220Z,35.92
2019-03-23T08:59:04.570Z,35.88
2019-03-23T09:01:36.871Z,35.65
2019-03-23T09:04:09.237Z,35.90
2019-03-23T09:06:41.520Z,35.03
2019-03-23T09:09:13.833Z,34.95
2019-03-23T09:11:46.109Z,34.78
2019-03-23T09:14:18.359Z,34.95
2019-03-23T09:16:50.627Z,36.00
2019-03-23T09:19:22.985Z,35.08
2019-03-23T09:21:55.404Z,35.58
2019-03-23T09:24:27.751Z,34.35
2019-03-23T09:27:02.801Z,33.50
2019-03-23T09:29:35.144Z,34.23
2019-03-23T09:32:07.415Z,33.92
2019-03-23T09:34:39.807Z,33.30
2019-03-23T09:37:12.089Z,33.60
2019-03-23T09:39:44.469Z,33.40
2019-03-23T09:42:16.844Z,32.28
2019-03-23T09:44:49.142Z,32.42
2019-03-23T09:47:21.501Z,32.67
2019-03-23T09:49:53.768Z,33.15
2019-03-23T09:52:26.153Z,31.73
2019-03-23T09:54:58.559Z,30.68
2019-03-23T09:57:30.923Z,33.63
2019-03-23T10:00:04.520Z,33.20
2019-03-23T10:02:36.873Z,34.40
2019-03-23T10:05:09.227Z,34.80
2019-03-23T10:07:41.813Z,32.03
2019-03-23T10:10:21.635Z,34.50
2019-03-23T10:12:48.290Z,35.40
2019-03-23T10:15:23.035Z,34.48
2019-03-23T10:17:55.284Z,36.25
2019-03-23T10:20:27.527Z,34.13
2019-03-23T10:22:59.825Z,35.48
2019-03-23T10:25:32.184Z,37.30
2019-03-23T10:28:04.682Z,33.98
2019-03-23T10:30:37.019Z,36.75
2019-03-23T10:33:09.291Z,36.77
2019-03-23T10:35:41.685Z,38.28
2019-03-23T10:38:13.928Z,37.40
2019-03-23T10:40:46.188Z,36.38
2019-03-23T10:43:18.503Z,38.05
2019-03-23T10:45:50.949Z,37.78
2019-03-23T10:48:23.311Z,37.28
2019-03-23T10:50:55.565Z,38.50
2019-03-23T10:53:30.764Z,40.12
2019-03-23T10:56:03.048Z,38.08
2019-03-23T10:58:35.308Z,40.25
2019-03-23T11:01:07.546Z,40.00
2019-03-23T11:03:39.801Z,41.02
2019-03-23T11:06:12.040Z,41.90
2019-03-23T11:08:44.335Z,38.60
2019-03-23T11:11:16.665Z,42.35
2019-03-23T11:13:49.050Z,43.65
2019-03-23T11:16:21.296Z,42.62
2019-03-23T11:18:53.657Z,43.20
2019-03-23T11:21:25.924Z,44.05
2019-03-23T11:23:58.256Z,45.10
2019-03-23T11:26:30.627Z,43.98
2019-03-23T11:29:02.918Z,48.48
2019-03-23T11:31:35.264Z,47.88
2019-03-23T11:34:17.251Z,47.35
2019-03-23T11:36:41.719Z,45.12
2019-03-23T11:39:14.004Z,49.15
2019-03-23T11:41:46.253Z,46.90
2019-03-23T11:44:18.511Z,50.88
2019-03-23T11:46:50.760Z,46.50
2019-03-23T11:49:23.064Z,44.60
2019-03-23T11:51:55.416Z,46.28
2019-03-23T11:54:27.785Z,46.63
2019-03-23T11:57:00.267Z,49.38
2019-03-23T11:59:32.559Z,47.38
2019-03-23T12:02:05.009Z,46.45
2019-03-23T12:04:37.291Z,46.35
2019-03-23T12:07:09.557Z,46.42
2019-03-23T12:09:41.821Z,44.75
2019-03-23T12:12:14.781Z,44.48
2019-03-23T12:14:49.279Z,49.15
2019-03-23T12:17:21.528Z,46.42
2019-03-23T12:19:53.788Z,44.48
2019-03-23T12:22:26.117Z,47.83
2019-03-23T12:24:58.385Z,46.03
2019-03-23T12:27:30.681Z,43.23
2019-03-23T12:30:07.538Z,39.53
2019-03-23T12:32:38.154Z,42.23
2019-03-23T12:35:10.752Z,42.90
2019-03-23T12:37:43.089Z,40.17
2019-03-23T12:40:15.470Z,39.20
2019-03-23T12:42:47.814Z,38.30
2019-03-23T12:45:20.167Z,38.60
2019-03-23T12:47:52.431Z,40.03
2019-03-23T12:50:24.684Z,35.37
2019-03-23T12:52:57.552Z,35.17
2019-03-23T12:55:29.923Z,35.37
2019-03-23T12:58:02.177Z,37.67
2019-03-23T13:00:34.540Z,35.67
2019-03-23T13:03:06.864Z,31.03
2019-03-23T13:05:39.120Z,33.20
2019-03-23T13:08:11.434Z,32.20
2019-03-23T13:10:43.754Z,31.17
2019-03-23T13:13:16.096Z,29.73
2019-03-23T13:15:48.363Z,32.40
2019-03-23T13:18:27.164Z,31.53
2019-03-23T13:20:55.168Z,32.17
2019-03-23T13:23:27.518Z,31.87
2019-03-23T13:25:59.787Z,33.67
2019-03-23T13:28:32.019Z,35.17
2019-03-23T13:31:04.269Z,33.70
2019-03-23T13:33:36.512Z,35.80
2019-03-23T13:36:08.782Z,35.60
2019-03-23T13:38:42.224Z,35.87
2019-03-23T13:41:14.564Z,35.37
2019-03-23T13:43:46.818Z,39.27
2019-03-23T13:46:19.112Z,39.93
2019-03-23T13:48:51.348Z,37.37
2019-03-23T13:51:23.616Z,35.37
2019-03-23T13:53:55.957Z,37.43
2019-03-23T13:56:28.225Z,40.30
2019-03-23T13:59:00.465Z,37.77
2019-03-23T14:01:32.820Z,38.10
2019-03-23T14:04:05.077Z,36.43
2019-03-23T14:06:37.413Z,38.33
2019-03-23T14:09:09.736Z,39.53
2019-03-23T14:11:41.984Z,36.27
2019-03-23T14:14:14.333Z,37.97
2019-03-23T14:16:46.598Z,37.07
2019-03-23T14:19:18.943Z,37.30
2019-03-23T14:21:51.916Z,38.73
2019-03-23T14:24:24.758Z,37.67
2019-03-23T14:26:57.677Z,35.20
2019-03-23T14:29:30.851Z,37.10
2019-03-23T14:32:03.872Z,36.37
2019-03-23T14:34:36.714Z,34.43
2019-03-23T14:37:09.634Z,35.90
2019-03-23T14:39:42.487Z,35.73
2019-03-23T14:42:15.506Z,36.20
2019-03-23T14:44:48.271Z,34.40
2019-03-23T14:47:21.196Z,37.20
2019-03-23T14:49:54.157Z,44.63
2019-03-23T14:52:26.999Z,44.27
2019-03-23T14:54:59.639Z,35.03
2019-03-23T14:57:32.287Z,37.23
2019-03-23T15:00:06.320Z,36.17
2019-03-23T15:02:39.226Z,35.67
2019-03-23T15:05:12.020Z,35.23
2019-03-23T15:07:44.884Z,32.73
2019-03-23T15:10:17.729Z,33.17
2019-03-23T15:12:50.584Z,33.47
2019-03-23T15:15:23.515Z,31.90
2019-03-23T15:17:56.129Z,29.23
2019-03-23T15:20:28.658Z,31.67
2019-03-23T15:23:01.507Z,28.33
2019-03-23T15:25:34.655Z,28.30
2019-03-23T15:28:07.378Z,29.17
2019-03-23T15:30:40.156Z,30.53
2019-03-23T15:33:12.885Z,29.13
2019-03-23T15:35:45.914Z,27.77
2019-03-23T15:38:18.874Z,28.33
2019-03-23T15:40:51.758Z,27.87
2019-03-23T15:43:24.681Z,26.97
2019-03-23T15:45:57.633Z,28.13
2019-03-23T15:48:30.546Z,28.73
2019-03-23T15:51:04.242Z,28.53
2019-03-23T15:53:37.300Z,25.53
2019-03-23T15:56:10.220Z,23.97
2019-03-23T15:58:42.689Z,25.63
2019-03-23T16:01:15.606Z,24.27
2019-03-23T16:03:48.605Z,24.13
2019-03-23T16:06:21.030Z,22.83
2019-03-23T16:08:54.159Z,24.50
2019-03-23T16:11:26.495Z,24.23
2019-03-23T16:13:58.761Z,26.23
2019-03-23T16:16:31.002Z,26.90
2019-03-23T16:19:03.371Z,25.07
2019-03-23T16:21:35.642Z,22.67
2019-03-23T16:24:07.908Z,22.83
2019-03-23T16:26:40.159Z,24.43
2019-03-23T16:29:12.421Z,28.23
2019-03-23T16:31:44.672Z,26.03
2019-03-23T16:34:17.016Z,25.37
2019-03-23T16:36:49.282Z,24.63
2019-03-23T16:39:21.679Z,25.33
2019-03-23T16:41:54.044Z,24.50
2019-03-23T16:44:26.312Z,26.90
2019-03-23T16:46:58.559Z,25.83
2019-03-23T16:49:30.833Z,24.03
2019-03-23T16:52:03.584Z,23.83
2019-03-23T16:54:36.646Z,25.20
2019-03-23T16:57:09.755Z,23.27
2019-03-23T16:59:42.866Z,22.93
2019-03-23T17:02:15.824Z,23.83
2019-03-23T17:04:48.825Z,22.13
2019-03-23T17:07:21.680Z,22.60
2019-03-23T17:09:54.023Z,23.37
2019-03-23T17:12:26.360Z,21.50
2019-03-23T17:14:58.614Z,22.73
2019-03-23T17:17:30.956Z,21.83
2019-03-23T17:20:03.928Z,22.37
2019-03-23T17:22:36.282Z,25.90
2019-03-23T17:25:08.760Z,26.17
2019-03-23T17:27:41.100Z,24.10
2019-03-23T17:30:13.523Z,22.03
2019-03-23T17:32:45.858Z,21.30
2019-03-23T17:35:18.108Z,21.87
2019-03-23T17:37:50.363Z,20.80
2019-03-23T17:40:22.724Z,19.37
2019-03-23T17:43:05.373Z,20.63
2019-03-23T17:45:29.278Z,21.67
2019-03-23T17:48:01.625Z,20.40
2019-03-23T17:50:33.901Z,21.10
2019-03-23T17:53:06.166Z,20.87
2019-03-23T17:55:38.412Z,22.80
2019-03-23T17:58:10.651Z,21.17
2019-03-23T18:00:43.041Z,22.77
2019-03-23T18:03:15.276Z,25.43
2019-03-23T18:05:47.551Z,23.37
2019-03-23T18:08:20.006Z,23.83
2019-03-23T18:10:52.386Z,26.40
2019-03-23T18:13:24.733Z,26.60
2019-03-23T18:15:57.003Z,31.40
2019-03-23T18:18:29.263Z,30.70
2019-03-23T18:21:01.532Z,27.43
2019-03-23T18:23:34.088Z,25.97
2019-03-23T18:26:06.456Z,24.93
2019-03-23T18:28:38.697Z,54.93
2019-03-23T18:31:11.209Z,31.10
2019-03-23T18:33:43.461Z,32.10
2019-03-23T18:36:15.721Z,33.20
2019-03-23T18:38:47.982Z,25.27
2019-03-23T18:41:20.386Z,24.20
2019-03-23T18:43:52.928Z,30.33
2019-03-23T18:46:25.211Z,30.57
2019-03-23T18:48:57.543Z,36.07
2019-03-23T18:51:30.019Z,32.70
2019-03-23T18:54:02.428Z,39.93
2019-03-23T18:56:34.684Z,33.57
2019-03-23T18:59:07.057Z,36.80
2019-03-23T19:01:39.361Z,36.27
2019-03-23T19:04:11.622Z,33.80
2019-03-23T19:06:43.882Z,35.30
2019-03-23T19:09:16.133Z,30.70
2019-03-23T19:11:48.402Z,39.83
2019-03-23T19:14:20.671Z,36.60
2019-03-23T19:16:52.950Z,36.97
2019-03-23T19:19:25.305Z,35.40
2019-03-23T19:21:57.586Z,31.90
2019-03-23T19:24:29.857Z,36.17
2019-03-23T19:27:02.236Z,33.53
2019-03-23T19:29:34.504Z,34.53
2019-03-23T19:32:06.877Z,34.00
2019-03-23T19:34:39.163Z,36.03
2019-03-23T19:37:11.479Z,35.97
2019-03-23T19:39:43.836Z,64.87
2019-03-23T19:42:16.157Z,60.83
2019-03-23T19:44:48.537Z,52.67
2019-03-23T19:47:20.941Z,46.23
2019-03-23T19:49:53.314Z,39.23
2019-03-23T19:52:25.675Z,38.80
2019-03-23T19:54:58.054Z,37.33
2019-03-23T19:57:30.473Z,36.10
2019-03-23T20:00:04.107Z,36.87
2019-03-23T20:02:36.575Z,37.13
2019-03-23T20:05:09.111Z,38.33
2019-03-23T20:07:41.413Z,39.43
2019-03-23T20:10:14.612Z,38.97
2019-03-23T20:12:46.905Z,38.30
2019-03-23T20:15:19.252Z,39.20
2019-03-23T20:17:51.578Z,41.00
2019-03-23T20:20:24.051Z,39.53
2019-03-23T20:22:56.473Z,40.10
2019-03-23T20:25:28.730Z,42.17
2019-03-23T20:28:01.243Z,44.50
2019-03-23T20:30:33.633Z,41.40
2019-03-23T20:33:06.036Z,41.97
2019-03-23T20:35:38.473Z,40.00
2019-03-23T20:38:10.991Z,43.07
2019-03-23T20:40:43.324Z,41.43
2019-03-23T20:43:15.627Z,43.03
2019-03-23T20:45:48.000Z,42.10
2019-03-23T20:48:20.612Z,41.23
2019-03-23T20:50:52.986Z,43.07
2019-03-23T20:53:25.490Z,43.43
2019-03-23T20:55:57.812Z,42.60
2019-03-23T20:58:30.131Z,43.83
2019-03-23T21:01:02.687Z,43.17
2019-03-23T21:03:35.135Z,45.97
2019-03-23T21:06:07.462Z,45.03
2019-03-23T21:08:39.853Z,43.37
2019-03-23T21:11:12.346Z,44.27
2019-03-23T21:13:44.654Z,46.53
2019-03-23T21:16:16.953Z,47.77
2019-03-23T21:18:49.365Z,46.60
2019-03-23T21:21:21.708Z,45.60
2019-03-23T21:23:53.985Z,45.57
2019-03-23T21:26:26.274Z,44.10
2019-03-23T21:28:58.682Z,44.63
2019-03-23T21:31:30.999Z,44.43
2019-03-23T21:34:03.536Z,43.40
2019-03-23T21:36:35.813Z,44.83
2019-03-23T21:39:08.136Z,47.37
2019-03-23T21:41:40.387Z,51.07
2019-03-23T21:44:12.710Z,44.73
2019-03-23T21:46:45.040Z,42.03
2019-03-23T21:49:17.330Z,43.93
2019-03-23T21:51:49.600Z,43.27
2019-03-23T21:54:21.962Z,43.63
2019-03-23T21:56:54.193Z,41.50
2019-03-23T21:59:26.468Z,43.87
2019-03-23T22:01:58.780Z,41.60
2019-03-23T22:04:31.079Z,42.37
2019-03-23T22:12:30.691Z,43.17
2019-03-23T22:15:04.378Z,42.53
2019-03-23T22:17:36.721Z,46.30
2019-03-23T22:20:09.228Z,44.93
2019-03-23T22:22:41.540Z,45.27
2019-03-23T22:25:13.910Z,44.80
2019-03-23T22:27:46.194Z,45.60
2019-03-23T22:30:18.593Z,45.37
2019-03-23T22:32:51.149Z,48.67
2019-03-23T22:35:23.423Z,46.53
2019-03-23T22:37:55.699Z,48.33
2019-03-23T22:40:28.308Z,49.40
2019-03-23T22:43:00.848Z,50.43
2019-03-23T22:45:33.117Z,52.47
2019-03-23T22:48:05.385Z,50.03
2019-03-23T22:50:37.661Z,54.33
2019-03-23T22:53:09.903Z,49.97
2019-03-23T22:55:42.200Z,52.00
2019-03-23T22:58:14.456Z,51.20
2019-03-23T23:00:47.823Z,51.43
2019-03-23T23:03:20.152Z,54.67
2019-03-23T23:05:52.421Z,53.57
2019-03-23T23:08:24.795Z,51.70
2019-03-23T23:10:57.141Z,53.37
2019-03-23T23:13:29.379Z,52.37
2019-03-23T23:16:01.652Z,52.03
2019-03-23T23:18:33.990Z,53.67
2019-03-23T23:21:06.248Z,49.67
2019-03-23T23:23:38.484Z,50.60
2019-03-23T23:26:10.729Z,50.70
2019-03-23T23:28:42.972Z,51.50
2019-03-23T23:31:15.231Z,53.40
2019-03-23T23:33:47.464Z,52.93
2019-03-23T23:36:19.715Z,58.03
2019-03-23T23:38:52.625Z,52.53
2019-03-23T23:41:25.113Z,52.97
2019-03-23T23:43:57.343Z,53.87
2019-03-23T23:46:29.623Z,53.77
2019-03-23T23:49:01.852Z,56.40
2019-03-23T23:51:34.246Z,55.07
2019-03-23T23:54:06.493Z,57.73
2019-03-23T23:56:38.904Z,54.53
2019-03-23T23:59:11.364Z,54.43
